sensor_id;sensor_type;location;lat;lon;timestamp;temperature;humidity
8711;DHT22;4392;47.400;8.062;2023-04-01T00:01:57;10.40;99.90
8711;DHT22;4392;47.400;8.062;2023-04-01T00:04:23;10.40;99.90
8711;DHT22;4392;47.400;8.062;2023-04-01T00:06:52;10.40;99.90
8711;DHT22;4392;47.400;8.062;2023-04-01T00:09:20;10.30;99.90
8711;DHT22;4392;47.400;8.062;2023-04-01T00:11:46;10.40;99.90
8711;DHT22;4392;47.400;8.062;2023-04-01T00:14:12;10.40;99.90
8711;DHT22;4392;47.400;8.062;2023-04-01T00:16:44;10.40;99.90
8711;DHT22;4392;47.400;8.062;2023-04-01T00:19:09;10.50;99.90
8711;DHT22;4392;47.400;8.062;2023-04-01T00:21:35;10.40;99.90
8711;DHT22;4392;47.400;8.062;2023-04-01T00:24:02;10.40;99.90
8711;DHT22;4392;47.400;8.062;2023-04-01T00:26:29;10.40;99.90
8711;DHT22;4392;47.400;8.062;2023-04-01T00:28:55;10.40;99.90
8711;DHT22;4392;47.400;8.062;2023-04-01T00:31:21;10.30;99.90
8711;DHT22;4392;47.400;8.062;2023-04-01T00:33:53;10.40;99.90
8711;DHT22;4392;47.400;8.062;2023-04-01T00:36:20;10.40;99.90
8711;DHT22;4392;47.400;8.062;2023-04-01T00:38:51;10.40;99.90
8711;DHT22;4392;47.400;8.062;2023-04-01T00:41:18;10.30;99.90
8711;DHT22;4392;47.400;8.062;2023-04-01T00:43:47;10.30;99.90
8711;DHT22;4392;47.400;8.062;2023-04-01T00:46:17;10.20;99.90
8711;DHT22;4392;47.400;8.062;2023-04-01T00:48:54;10.20;99.90
8711;DHT22;4392;47.400;8.062;2023-04-01T00:51:27;10.30;99.90
8711;DHT22;4392;47.400;8.062;2023-04-01T00:53:56;10.20;99.90
8711;DHT22;4392;47.400;8.062;2023-04-01T00:56:36;10.20;99.90
8711;DHT22;4392;47.400;8.062;2023-04-01T00:59:11;10.20;99.90
8711;DHT22;4392;47.400;8.062;2023-04-01T01:01:54;10.20;99.90
8711;DHT22;4392;47.400;8.062;2023-04-01T01:09:35;10.20;99.90
8711;DHT22;4392;47.400;8.062;2023-04-01T01:12:15;10.00;99.90
8711;DHT22;4392;47.400;8.062;2023-04-01T01:17:38;10.20;99.90
8711;DHT22;4392;47.400;8.062;2023-04-01T01:26:00;10.20;99.90
8711;DHT22;4392;47.400;8.062;2023-04-01T01:37:28;10.20;99.90
8711;DHT22;4392;47.400;8.062;2023-04-01T01:40:05;10.10;99.90
8711;DHT22;4392;47.400;8.062;2023-04-01T01:42:34;10.00;99.90
8711;DHT22;4392;47.400;8.062;2023-04-01T01:45:08;10.00;99.90
8711;DHT22;4392;47.400;8.062;2023-04-01T01:47:38;10.10;99.90
8711;DHT22;4392;47.400;8.062;2023-04-01T01:50:06;10.10;99.90
8711;DHT22;4392;47.400;8.062;2023-04-01T01:52:33;10.00;99.90
8711;DHT22;4392;47.400;8.062;2023-04-01T01:55:29;10.00;99.90
8711;DHT22;4392;47.400;8.062;2023-04-01T01:57:58;10.00;99.90
8711;DHT22;4392;47.400;8.062;2023-04-01T02:00:29;9.90;99.90
8711;DHT22;4392;47.400;8.062;2023-04-01T02:02:55;9.80;99.90
8711;DHT22;4392;47.400;8.062;2023-04-01T02:05:24;10.00;99.90
8711;DHT22;4392;47.400;8.062;2023-04-01T02:08:08;10.00;99.90
8711;DHT22;4392;47.400;8.062;2023-04-01T02:10:37;10.10;99.90
8711;DHT22;4392;47.400;8.062;2023-04-01T02:16:58;10.00;99.90
8711;DHT22;4392;47.400;8.062;2023-04-01T02:19:32;9.80;99.90
8711;DHT22;4392;47.400;8.062;2023-04-01T02:22:07;9.80;99.90
8711;DHT22;4392;47.400;8.062;2023-04-01T02:24:35;9.90;99.90
8711;DHT22;4392;47.400;8.062;2023-04-01T02:27:11;9.90;99.90
8711;DHT22;4392;47.400;8.062;2023-04-01T02:29:37;9.90;99.90
8711;DHT22;4392;47.400;8.062;2023-04-01T02:32:08;9.90;99.90
8711;DHT22;4392;47.400;8.062;2023-04-01T02:34:35;9.90;99.90
8711;DHT22;4392;47.400;8.062;2023-04-01T02:37:01;9.80;99.90
8711;DHT22;4392;47.400;8.062;2023-04-01T02:39:33;9.80;99.90
8711;DHT22;4392;47.400;8.062;2023-04-01T02:41:58;9.80;99.90
8711;DHT22;4392;47.400;8.062;2023-04-01T02:44:24;9.80;99.90
8711;DHT22;4392;47.400;8.062;2023-04-01T02:46:50;9.80;99.90
8711;DHT22;4392;47.400;8.062;2023-04-01T02:49:16;9.80;99.90
8711;DHT22;4392;47.400;8.062;2023-04-01T02:51:42;9.80;99.90
8711;DHT22;4392;47.400;8.062;2023-04-01T02:54:09;9.80;99.90
8711;DHT22;4392;47.400;8.062;2023-04-01T02:56:39;9.70;99.90
8711;DHT22;4392;47.400;8.062;2023-04-01T02:59:04;9.50;99.90
8711;DHT22;4392;47.400;8.062;2023-04-01T03:01:30;9.60;99.90
8711;DHT22;4392;47.400;8.062;2023-04-01T03:03:56;9.60;99.90
8711;DHT22;4392;47.400;8.062;2023-04-01T03:06:22;9.50;99.90
8711;DHT22;4392;47.400;8.062;2023-04-01T03:08:47;9.60;99.90
8711;DHT22;4392;47.400;8.062;2023-04-01T03:11:17;9.60;99.90
8711;DHT22;4392;47.400;8.062;2023-04-01T03:13:42;9.60;99.90
8711;DHT22;4392;47.400;8.062;2023-04-01T03:16:11;9.60;99.90
8711;DHT22;4392;47.400;8.062;2023-04-01T03:18:41;9.70;99.90
8711;DHT22;4392;47.400;8.062;2023-04-01T03:21:18;9.70;99.90
8711;DHT22;4392;47.400;8.062;2023-04-01T03:23:56;9.70;99.90
8711;DHT22;4392;47.400;8.062;2023-04-01T03:26:21;9.80;99.90
8711;DHT22;4392;47.400;8.062;2023-04-01T03:28:53;9.80;99.90
8711;DHT22;4392;47.400;8.062;2023-04-01T03:31:19;9.70;99.90
8711;DHT22;4392;47.400;8.062;2023-04-01T03:33:45;9.70;99.90
8711;DHT22;4392;47.400;8.062;2023-04-01T03:36:11;9.80;99.90
8711;DHT22;4392;47.400;8.062;2023-04-01T03:38:42;9.70;99.90
8711;DHT22;4392;47.400;8.062;2023-04-01T03:41:13;9.60;99.90
8711;DHT22;4392;47.400;8.062;2023-04-01T03:43:38;9.60;99.90
8711;DHT22;4392;47.400;8.062;2023-04-01T03:46:08;9.70;99.90
8711;DHT22;4392;47.400;8.062;2023-04-01T03:48:34;9.70;99.90
8711;DHT22;4392;47.400;8.062;2023-04-01T03:50:59;9.80;99.90
8711;DHT22;4392;47.400;8.062;2023-04-01T03:53:25;9.70;99.90
8711;DHT22;4392;47.400;8.062;2023-04-01T03:55:56;9.50;99.90
8711;DHT22;4392;47.400;8.062;2023-04-01T03:58:21;9.50;99.90
8711;DHT22;4392;47.400;8.062;2023-04-01T04:00:47;9.60;99.90
8711;DHT22;4392;47.400;8.062;2023-04-01T04:03:13;9.70;99.90
8711;DHT22;4392;47.400;8.062;2023-04-01T04:05:46;9.60;99.90
8711;DHT22;4392;47.400;8.062;2023-04-01T04:08:12;9.60;99.90
8711;DHT22;4392;47.400;8.062;2023-04-01T04:10:40;9.60;99.90
8711;DHT22;4392;47.400;8.062;2023-04-01T04:13:10;9.40;99.90
8711;DHT22;4392;47.400;8.062;2023-04-01T04:15:38;9.50;99.90
8711;DHT22;4392;47.400;8.062;2023-04-01T04:18:04;9.60;99.90
8711;DHT22;4392;47.400;8.062;2023-04-01T04:20:30;9.50;99.90
8711;DHT22;4392;47.400;8.062;2023-04-01T04:22:57;9.60;99.90
8711;DHT22;4392;47.400;8.062;2023-04-01T04:25:23;9.50;99.90
8711;DHT22;4392;47.400;8.062;2023-04-01T04:27:51;9.40;99.90
8711;DHT22;4392;47.400;8.062;2023-04-01T04:30:25;9.40;99.90
8711;DHT22;4392;47.400;8.062;2023-04-01T04:32:50;9.50;99.90
8711;DHT22;4392;47.400;8.062;2023-04-01T04:35:16;9.50;99.90
8711;DHT22;4392;47.400;8.062;2023-04-01T04:37:42;9.40;99.90
8711;DHT22;4392;47.400;8.062;2023-04-01T04:40:14;9.50;99.90
8711;DHT22;4392;47.400;8.062;2023-04-01T04:42:39;9.50;99.90
8711;DHT22;4392;47.400;8.062;2023-04-01T04:45:05;9.40;99.90
8711;DHT22;4392;47.400;8.062;2023-04-01T04:47:31;9.40;99.90
8711;DHT22;4392;47.400;8.062;2023-04-01T04:50:02;9.40;99.90
8711;DHT22;4392;47.400;8.062;2023-04-01T04:52:28;9.40;99.90
8711;DHT22;4392;47.400;8.062;2023-04-01T04:54:54;9.50;99.90
8711;DHT22;4392;47.400;8.062;2023-04-01T04:57:20;9.20;99.90
8711;DHT22;4392;47.400;8.062;2023-04-01T04:59:49;9.20;99.90
8711;DHT22;4392;47.400;8.062;2023-04-01T05:02:15;9.10;99.90
8711;DHT22;4392;47.400;8.062;2023-04-01T05:04:41;9.30;99.90
8711;DHT22;4392;47.400;8.062;2023-04-01T05:07:07;8.90;99.90
8711;DHT22;4392;47.400;8.062;2023-04-01T05:09:32;9.10;99.90
8711;DHT22;4392;47.400;8.062;2023-04-01T05:11:59;9.20;99.90
8711;DHT22;4392;47.400;8.062;2023-04-01T05:14:28;9.30;99.90
8711;DHT22;4392;47.400;8.062;2023-04-01T05:16:55;9.30;99.90
8711;DHT22;4392;47.400;8.062;2023-04-01T05:19:21;9.30;99.90
8711;DHT22;4392;47.400;8.062;2023-04-01T05:21:47;9.40;99.90
8711;DHT22;4392;47.400;8.062;2023-04-01T05:24:12;9.40;99.90
8711;DHT22;4392;47.400;8.062;2023-04-01T05:26:39;9.50;99.90
8711;DHT22;4392;47.400;8.062;2023-04-01T05:29:05;9.50;99.90
8711;DHT22;4392;47.400;8.062;2023-04-01T05:31:31;9.50;99.90
8711;DHT22;4392;47.400;8.062;2023-04-01T05:33:56;9.40;99.90
8711;DHT22;4392;47.400;8.062;2023-04-01T05:36:25;9.40;99.90
8711;DHT22;4392;47.400;8.062;2023-04-01T05:38:57;9.40;99.90
8711;DHT22;4392;47.400;8.062;2023-04-01T05:41:23;9.30;99.90
8711;DHT22;4392;47.400;8.062;2023-04-01T05:43:48;9.40;99.90
8711;DHT22;4392;47.400;8.062;2023-04-01T05:46:18;9.40;99.90
8711;DHT22;4392;47.400;8.062;2023-04-01T05:48:44;9.40;99.90
8711;DHT22;4392;47.400;8.062;2023-04-01T05:51:17;9.40;99.90
8711;DHT22;4392;47.400;8.062;2023-04-01T05:53:43;9.50;99.90
8711;DHT22;4392;47.400;8.062;2023-04-01T05:56:09;9.50;99.90
8711;DHT22;4392;47.400;8.062;2023-04-01T05:58:36;9.50;99.90
8711;DHT22;4392;47.400;8.062;2023-04-01T06:01:07;9.50;99.90
8711;DHT22;4392;47.400;8.062;2023-04-01T06:03:33;9.40;99.90
8711;DHT22;4392;47.400;8.062;2023-04-01T06:06:02;9.50;99.90
8711;DHT22;4392;47.400;8.062;2023-04-01T06:08:31;9.50;99.90
8711;DHT22;4392;47.400;8.062;2023-04-01T06:14:06;9.40;99.90
8711;DHT22;4392;47.400;8.062;2023-04-01T06:31:36;9.50;99.90
8711;DHT22;4392;47.400;8.062;2023-04-01T06:37:06;9.50;99.90
8711;DHT22;4392;47.400;8.062;2023-04-01T06:54:03;9.50;99.90
8711;DHT22;4392;47.400;8.062;2023-04-01T06:56:32;9.60;99.90
8711;DHT22;4392;47.400;8.062;2023-04-01T06:59:10;9.60;99.90
8711;DHT22;4392;47.400;8.062;2023-04-01T07:02:05;9.50;99.90
8711;DHT22;4392;47.400;8.062;2023-04-01T07:04:42;9.50;99.90
8711;DHT22;4392;47.400;8.062;2023-04-01T07:07:40;9.40;99.90
8711;DHT22;4392;47.400;8.062;2023-04-01T07:10:43;9.50;99.90
8711;DHT22;4392;47.400;8.062;2023-04-01T07:13:58;9.50;99.90
8711;DHT22;4392;47.400;8.062;2023-04-01T07:16:41;9.50;99.90
8711;DHT22;4392;47.400;8.062;2023-04-01T07:24:24;9.40;99.90
8711;DHT22;4392;47.400;8.062;2023-04-01T07:26:55;9.40;99.90
8711;DHT22;4392;47.400;8.062;2023-04-01T07:29:21;9.40;99.90
8711;DHT22;4392;47.400;8.062;2023-04-01T07:40:35;9.40;99.90
8711;DHT22;4392;47.400;8.062;2023-04-01T07:46:26;9.50;99.90
8711;DHT22;4392;47.400;8.062;2023-04-01T08:00:24;9.50;99.90
8711;DHT22;4392;47.400;8.062;2023-04-01T08:06:03;9.40;99.90
8711;DHT22;4392;47.400;8.062;2023-04-01T08:16:50;9.50;99.90
8711;DHT22;4392;47.400;8.062;2023-04-01T08:22:26;9.30;99.90
8711;DHT22;4392;47.400;8.062;2023-04-01T08:24:54;9.30;99.90
8711;DHT22;4392;47.400;8.062;2023-04-01T08:27:31;9.30;99.90
8711;DHT22;4392;47.400;8.062;2023-04-01T08:30:20;9.40;99.90
8711;DHT22;4392;47.400;8.062;2023-04-01T08:32:59;9.50;99.90
8711;DHT22;4392;47.400;8.062;2023-04-01T08:36:05;9.50;99.90
8711;DHT22;4392;47.400;8.062;2023-04-01T08:53:12;9.00;99.90
8711;DHT22;4392;47.400;8.062;2023-04-01T09:09:47;9.30;99.90
8711;DHT22;4392;47.400;8.062;2023-04-01T09:15:20;9.40;99.90
8711;DHT22;4392;47.400;8.062;2023-04-01T09:18:28;9.30;99.90
8711;DHT22;4392;47.400;8.062;2023-04-01T09:23:53;9.60;99.90
8711;DHT22;4392;47.400;8.062;2023-04-01T09:26:35;9.60;99.90
8711;DHT22;4392;47.400;8.062;2023-04-01T09:40:58;9.60;99.90
8711;DHT22;4392;47.400;8.062;2023-04-01T09:52:18;9.70;99.90
8711;DHT22;4392;47.400;8.062;2023-04-01T09:54:58;9.70;99.90
8711;DHT22;4392;47.400;8.062;2023-04-01T10:00:52;9.60;99.90
8711;DHT22;4392;47.400;8.062;2023-04-01T10:15:35;9.60;99.90
8711;DHT22;4392;47.400;8.062;2023-04-01T10:32:45;9.90;99.90
8711;DHT22;4392;47.400;8.062;2023-04-01T10:50:24;9.90;99.90
8711;DHT22;4392;47.400;8.062;2023-04-01T11:24:21;9.90;99.90
8711;DHT22;4392;47.400;8.062;2023-04-01T11:29:46;10.00;99.90
8711;DHT22;4392;47.400;8.062;2023-04-01T11:38:34;9.90;99.90
8711;DHT22;4392;47.400;8.062;2023-04-01T11:52:53;10.10;99.90
8711;DHT22;4392;47.400;8.062;2023-04-01T12:09:46;9.90;99.90
8711;DHT22;4392;47.400;8.062;2023-04-01T12:15:24;9.90;99.90
8711;DHT22;4392;47.400;8.062;2023-04-01T12:21:28;9.90;99.90
8711;DHT22;4392;47.400;8.062;2023-04-01T12:30:14;10.20;99.90
8711;DHT22;4392;47.400;8.062;2023-04-01T12:33:10;10.30;99.90
8711;DHT22;4392;47.400;8.062;2023-04-01T12:35:51;10.50;99.90
8711;DHT22;4392;47.400;8.062;2023-04-01T12:42:14;10.60;99.90
8711;DHT22;4392;47.400;8.062;2023-04-01T12:53:22;10.70;99.90
8711;DHT22;4392;47.400;8.062;2023-04-01T12:56:07;10.80;99.90
8711;DHT22;4392;47.400;8.062;2023-04-01T13:01:47;10.90;99.90
8711;DHT22;4392;47.400;8.062;2023-04-01T13:15:37;10.80;99.90
8711;DHT22;4392;47.400;8.062;2023-04-01T13:18:39;10.70;99.90
8711;DHT22;4392;47.400;8.062;2023-04-01T13:24:49;10.70;99.90
8711;DHT22;4392;47.400;8.062;2023-04-01T13:27:34;10.70;99.90
8711;DHT22;4392;47.400;8.062;2023-04-01T13:33:26;10.80;99.90
8711;DHT22;4392;47.400;8.062;2023-04-01T13:39:20;10.90;99.90
8711;DHT22;4392;47.400;8.062;2023-04-01T13:42:19;11.00;99.90
8711;DHT22;4392;47.400;8.062;2023-04-01T13:47:40;11.00;99.90
8711;DHT22;4392;47.400;8.062;2023-04-01T13:50:19;11.00;99.90
8711;DHT22;4392;47.400;8.062;2023-04-01T14:08:14;11.00;99.90
8711;DHT22;4392;47.400;8.062;2023-04-01T14:12:58;10.30;99.90
8711;DHT22;4392;47.400;8.062;2023-04-01T14:32:57;10.10;99.90
8711;DHT22;4392;47.400;8.062;2023-04-01T14:50:21;10.60;99.90
8711;DHT22;4392;47.400;8.062;2023-04-01T14:55:56;10.80;99.90
8711;DHT22;4392;47.400;8.062;2023-04-01T14:58:38;10.90;99.90
8711;DHT22;4392;47.400;8.062;2023-04-01T15:04:33;10.80;99.90
8711;DHT22;4392;47.400;8.062;2023-04-01T15:07:11;10.70;99.90
8711;DHT22;4392;47.400;8.062;2023-04-01T15:23:41;11.10;99.90
8711;DHT22;4392;47.400;8.062;2023-04-01T15:26:47;11.30;99.90
8711;DHT22;4392;47.400;8.062;2023-04-01T15:37:58;12.20;99.90
8711;DHT22;4392;47.400;8.062;2023-04-01T15:40:45;12.20;99.90
8711;DHT22;4392;47.400;8.062;2023-04-01T15:43:38;12.00;99.90
8711;DHT22;4392;47.400;8.062;2023-04-01T15:49:23;11.90;99.90
8711;DHT22;4392;47.400;8.062;2023-04-01T15:52:14;12.00;99.90
8711;DHT22;4392;47.400;8.062;2023-04-01T16:19:31;13.70;99.90
8711;DHT22;4392;47.400;8.062;2023-04-01T16:31:15;12.30;99.90
8711;DHT22;4392;47.400;8.062;2023-04-01T16:36:37;11.90;99.90
8711;DHT22;4392;47.400;8.062;2023-04-01T16:39:30;11.80;99.90
8711;DHT22;4392;47.400;8.062;2023-04-01T16:51:02;11.40;99.90
8711;DHT22;4392;47.400;8.062;2023-04-01T16:56:42;11.30;99.90
8711;DHT22;4392;47.400;8.062;2023-04-01T16:59:26;11.30;99.90
8711;DHT22;4392;47.400;8.062;2023-04-01T17:02:02;11.30;99.90
8711;DHT22;4392;47.400;8.062;2023-04-01T17:08:14;10.60;99.90
8711;DHT22;4392;47.400;8.062;2023-04-01T17:10:46;10.60;99.90
8711;DHT22;4392;47.400;8.062;2023-04-01T17:22:11;11.20;99.90
8711;DHT22;4392;47.400;8.062;2023-04-01T17:25:23;11.40;99.90
8711;DHT22;4392;47.400;8.062;2023-04-01T17:28:04;11.40;99.90
8711;DHT22;4392;47.400;8.062;2023-04-01T17:50:51;11.20;99.90
8711;DHT22;4392;47.400;8.062;2023-04-01T17:57:00;11.10;99.90
8711;DHT22;4392;47.400;8.062;2023-04-01T18:00:23;11.10;99.90
8711;DHT22;4392;47.400;8.062;2023-04-01T18:03:05;11.00;99.90
8711;DHT22;4392;47.400;8.062;2023-04-01T18:22:39;10.80;99.90
8711;DHT22;4392;47.400;8.062;2023-04-01T18:28:14;10.80;99.90
8711;DHT22;4392;47.400;8.062;2023-04-01T18:31:06;10.70;99.90
8711;DHT22;4392;47.400;8.062;2023-04-01T18:39:33;10.60;99.90
8711;DHT22;4392;47.400;8.062;2023-04-01T18:48:11;10.50;99.90
8711;DHT22;4392;47.400;8.062;2023-04-01T18:50:55;10.50;99.90
8711;DHT22;4392;47.400;8.062;2023-04-01T18:53:42;10.50;99.90
8711;DHT22;4392;47.400;8.062;2023-04-01T19:22:10;10.40;99.90
8711;DHT22;4392;47.400;8.062;2023-04-01T19:27:35;10.40;99.90
8711;DHT22;4392;47.400;8.062;2023-04-01T19:30:57;10.40;99.90
8711;DHT22;4392;47.400;8.062;2023-04-01T19:41:43;10.40;99.90
8711;DHT22;4392;47.400;8.062;2023-04-01T20:00:44;10.20;99.90
8711;DHT22;4392;47.400;8.062;2023-04-01T20:14:56;10.10;99.90
8711;DHT22;4392;47.400;8.062;2023-04-01T20:17:38;10.10;99.90
8711;DHT22;4392;47.400;8.062;2023-04-01T20:20:20;10.20;99.90
8711;DHT22;4392;47.400;8.062;2023-04-01T20:26:08;10.40;99.90
8711;DHT22;4392;47.400;8.062;2023-04-01T20:28:42;10.10;99.90
8711;DHT22;4392;47.400;8.062;2023-04-01T20:44:46;9.80;99.90
8711;DHT22;4392;47.400;8.062;2023-04-01T20:47:51;9.90;99.90
8711;DHT22;4392;47.400;8.062;2023-04-01T20:50:37;10.00;99.90
8711;DHT22;4392;47.400;8.062;2023-04-01T20:53:29;9.80;99.90
8711;DHT22;4392;47.400;8.062;2023-04-01T21:17:11;9.50;99.90
8711;DHT22;4392;47.400;8.062;2023-04-01T21:48:42;9.50;99.90
8711;DHT22;4392;47.400;8.062;2023-04-01T22:00:38;9.60;99.90
8711;DHT22;4392;47.400;8.062;2023-04-01T22:09:31;9.50;99.90
8711;DHT22;4392;47.400;8.062;2023-04-01T22:12:25;9.50;99.90
8711;DHT22;4392;47.400;8.062;2023-04-01T22:23:30;9.60;99.90
8711;DHT22;4392;47.400;8.062;2023-04-01T22:37:17;9.60;99.90
8711;DHT22;4392;47.400;8.062;2023-04-01T22:40:11;9.60;99.90
8711;DHT22;4392;47.400;8.062;2023-04-01T22:42:53;9.60;99.90
8711;DHT22;4392;47.400;8.062;2023-04-01T22:51:24;9.70;99.90
8711;DHT22;4392;47.400;8.062;2023-04-01T22:57:01;9.60;99.90
8711;DHT22;4392;47.400;8.062;2023-04-01T22:59:53;9.60;99.90
8711;DHT22;4392;47.400;8.062;2023-04-01T23:03:08;9.60;99.90
8711;DHT22;4392;47.400;8.062;2023-04-01T23:05:41;9.60;99.90
8711;DHT22;4392;47.400;8.062;2023-04-01T23:17:16;9.60;99.90
8711;DHT22;4392;47.400;8.062;2023-04-01T23:22:37;9.70;99.90
8711;DHT22;4392;47.400;8.062;2023-04-01T23:25:27;9.60;99.90
8711;DHT22;4392;47.400;8.062;2023-04-01T23:33:34;9.60;99.90
8711;DHT22;4392;47.400;8.062;2023-04-01T23:36:02;9.60;99.90
8711;DHT22;4392;47.400;8.062;2023-04-01T23:38:41;9.70;99.90
8711;DHT22;4392;47.400;8.062;2023-04-01T23:41:30;9.70;99.90
8711;DHT22;4392;47.400;8.062;2023-04-01T23:44:13;9.60;99.90
8711;DHT22;4392;47.400;8.062;2023-04-01T23:46:44;9.60;99.90
8711;DHT22;4392;47.400;8.062;2023-04-01T23:49:25;9.60;99.90
8711;DHT22;4392;47.400;8.062;2023-04-01T23:52:21;9.50;99.90
